sensor_id;sensor_type;location;lat;lon;timestamp;P1;durP1;ratioP1;P2;durP2;ratioP2
6149;SDS011;3106;42.670;23.318;2022-08-11T00:02:16;9.10;;;6.87;;
6149;SDS011;3106;42.670;23.318;2022-08-11T00:05:02;9.03;;;7.17;;
6149;SDS011;3106;42.670;23.318;2022-08-11T00:07:32;8.07;;;6.83;;
6149;SDS011;3106;42.670;23.318;2022-08-11T00:10:00;7.87;;;6.13;;
6149;SDS011;3106;42.670;23.318;2022-08-11T00:12:27;10.20;;;6.80;;
6149;SDS011;3106;42.670;23.318;2022-08-11T00:14:55;8.27;;;6.60;;
6149;SDS011;3106;42.670;23.318;2022-08-11T00:17:26;12.80;;;6.40;;
6149;SDS011;3106;42.670;23.318;2022-08-11T00:20:01;8.17;;;6.87;;
6149;SDS011;3106;42.670;23.318;2022-08-11T00:22:33;13.33;;;6.70;;
6149;SDS011;3106;42.670;23.318;2022-08-11T00:25:07;8.23;;;6.70;;
6149;SDS011;3106;42.670;23.318;2022-08-11T00:27:36;8.13;;;7.10;;
6149;SDS011;3106;42.670;23.318;2022-08-11T00:30:05;8.90;;;7.17;;
6149;SDS011;3106;42.670;23.318;2022-08-11T00:32:33;7.83;;;6.13;;
6149;SDS011;3106;42.670;23.318;2022-08-11T00:35:04;7.63;;;6.70;;
6149;SDS011;3106;42.670;23.318;2022-08-11T00:37:33;8.67;;;6.40;;
6149;SDS011;3106;42.670;23.318;2022-08-11T00:40:03;8.90;;;7.00;;
6149;SDS011;3106;42.670;23.318;2022-08-11T00:42:42;11.73;;;7.23;;
6149;SDS011;3106;42.670;23.318;2022-08-11T00:45:19;6.90;;;6.07;;
6149;SDS011;3106;42.670;23.318;2022-08-11T00:47:53;8.17;;;6.60;;
6149;SDS011;3106;42.670;23.318;2022-08-11T00:50:34;9.17;;;7.07;;
6149;SDS011;3106;42.670;23.318;2022-08-11T00:53:11;12.60;;;6.87;;
6149;SDS011;3106;42.670;23.318;2022-08-11T01:02:45;9.67;;;6.70;;
6149;SDS011;3106;42.670;23.318;2022-08-11T01:08:29;9.07;;;7.03;;
6149;SDS011;3106;42.670;23.318;2022-08-11T01:11:25;9.53;;;7.10;;
6149;SDS011;3106;42.670;23.318;2022-08-11T01:14:26;10.63;;;7.10;;
6149;SDS011;3106;42.670;23.318;2022-08-11T01:20:24;9.60;;;7.07;;
6149;SDS011;3106;42.670;23.318;2022-08-11T01:23:27;8.87;;;6.40;;
6149;SDS011;3106;42.670;23.318;2022-08-11T01:39:08;8.83;;;7.40;;
6149;SDS011;3106;42.670;23.318;2022-08-11T01:45:44;11.57;;;7.80;;
6149;SDS011;3106;42.670;23.318;2022-08-11T01:48:19;17.87;;;7.20;;
6149;SDS011;3106;42.670;23.318;2022-08-11T01:51:07;11.70;;;7.70;;
6149;SDS011;3106;42.670;23.318;2022-08-11T01:53:44;11.90;;;8.50;;
6149;SDS011;3106;42.670;23.318;2022-08-11T01:56:26;12.00;;;8.23;;
6149;SDS011;3106;42.670;23.318;2022-08-11T01:59:04;9.60;;;7.57;;
6149;SDS011;3106;42.670;23.318;2022-08-11T02:01:44;10.90;;;7.30;;
6149;SDS011;3106;42.670;23.318;2022-08-11T02:04:28;9.57;;;7.27;;
6149;SDS011;3106;42.670;23.318;2022-08-11T02:07:03;8.87;;;7.43;;
6149;SDS011;3106;42.670;23.318;2022-08-11T02:09:48;10.80;;;7.50;;
6149;SDS011;3106;42.670;23.318;2022-08-11T02:15:13;11.30;;;7.83;;
6149;SDS011;3106;42.670;23.318;2022-08-11T02:18:03;11.43;;;7.70;;
6149;SDS011;3106;42.670;23.318;2022-08-11T02:20:36;11.20;;;8.07;;
6149;SDS011;3106;42.670;23.318;2022-08-11T02:23:28;12.50;;;7.70;;
6149;SDS011;3106;42.670;23.318;2022-08-11T02:26:07;12.67;;;8.20;;
6149;SDS011;3106;42.670;23.318;2022-08-11T02:28:41;11.17;;;7.73;;
6149;SDS011;3106;42.670;23.318;2022-08-11T02:31:24;10.93;;;8.40;;
6149;SDS011;3106;42.670;23.318;2022-08-11T02:34:23;11.03;;;7.90;;
6149;SDS011;3106;42.670;23.318;2022-08-11T02:37:09;13.67;;;8.10;;
6149;SDS011;3106;42.670;23.318;2022-08-11T02:39:45;11.03;;;8.07;;
6149;SDS011;3106;42.670;23.318;2022-08-11T02:42:20;10.97;;;7.80;;
6149;SDS011;3106;42.670;23.318;2022-08-11T02:44:58;9.53;;;8.00;;
6149;SDS011;3106;42.670;23.318;2022-08-11T02:47:40;10.37;;;8.13;;
6149;SDS011;3106;42.670;23.318;2022-08-11T02:50:35;12.43;;;8.53;;
6149;SDS011;3106;42.670;23.318;2022-08-11T02:53:08;9.80;;;7.63;;
6149;SDS011;3106;42.670;23.318;2022-08-11T02:55:45;11.80;;;7.90;;
6149;SDS011;3106;42.670;23.318;2022-08-11T02:58:24;11.10;;;8.23;;
6149;SDS011;3106;42.670;23.318;2022-08-11T03:01:06;10.57;;;8.20;;
6149;SDS011;3106;42.670;23.318;2022-08-11T03:03:47;11.47;;;8.00;;
6149;SDS011;3106;42.670;23.318;2022-08-11T03:06:23;11.13;;;9.17;;
6149;SDS011;3106;42.670;23.318;2022-08-11T03:08:59;17.40;;;8.77;;
6149;SDS011;3106;42.670;23.318;2022-08-11T03:11:38;13.27;;;9.03;;
6149;SDS011;3106;42.670;23.318;2022-08-11T03:14:32;15.13;;;8.90;;
6149;SDS011;3106;42.670;23.318;2022-08-11T03:17:29;12.87;;;8.57;;
6149;SDS011;3106;42.670;23.318;2022-08-11T03:20:05;18.40;;;8.90;;
6149;SDS011;3106;42.670;23.318;2022-08-11T03:22:48;11.83;;;8.17;;
6149;SDS011;3106;42.670;23.318;2022-08-11T03:25:21;15.80;;;9.37;;
6149;SDS011;3106;42.670;23.318;2022-08-11T03:28:00;17.47;;;8.50;;
6149;SDS011;3106;42.670;23.318;2022-08-11T03:30:34;17.87;;;9.53;;
6149;SDS011;3106;42.670;23.318;2022-08-11T03:33:14;10.40;;;8.83;;
6149;SDS011;3106;42.670;23.318;2022-08-11T03:36:08;11.50;;;9.27;;
6149;SDS011;3106;42.670;23.318;2022-08-11T03:38:46;14.70;;;8.97;;
6149;SDS011;3106;42.670;23.318;2022-08-11T03:41:23;12.40;;;9.40;;
6149;SDS011;3106;42.670;23.318;2022-08-11T03:44:19;10.40;;;8.40;;
6149;SDS011;3106;42.670;23.318;2022-08-11T03:47:09;12.70;;;9.07;;
6149;SDS011;3106;42.670;23.318;2022-08-11T03:49:52;18.70;;;9.37;;
6149;SDS011;3106;42.670;23.318;2022-08-11T03:52:28;19.40;;;11.30;;
6149;SDS011;3106;42.670;23.318;2022-08-11T03:55:13;14.20;;;8.80;;
6149;SDS011;3106;42.670;23.318;2022-08-11T04:01:06;11.37;;;8.47;;
6149;SDS011;3106;42.670;23.318;2022-08-11T04:03:57;11.90;;;8.40;;
6149;SDS011;3106;42.670;23.318;2022-08-11T04:07:10;11.77;;;9.10;;
6149;SDS011;3106;42.670;23.318;2022-08-11T04:10:21;15.20;;;8.90;;
6149;SDS011;3106;42.670;23.318;2022-08-11T04:16:33;16.97;;;8.80;;
6149;SDS011;3106;42.670;23.318;2022-08-11T04:19:20;11.20;;;8.47;;
6149;SDS011;3106;42.670;23.318;2022-08-11T04:24:57;16.50;;;9.10;;
6149;SDS011;3106;42.670;23.318;2022-08-11T04:27:51;11.27;;;8.80;;
6149;SDS011;3106;42.670;23.318;2022-08-11T04:30:31;10.80;;;8.73;;
6149;SDS011;3106;42.670;23.318;2022-08-11T04:40:02;20.60;;;8.80;;
6149;SDS011;3106;42.670;23.318;2022-08-11T04:56:07;12.77;;;8.37;;
6149;SDS011;3106;42.670;23.318;2022-08-11T04:59:07;11.70;;;8.03;;
6149;SDS011;3106;42.670;23.318;2022-08-11T05:02:14;11.67;;;8.20;;
6149;SDS011;3106;42.670;23.318;2022-08-11T05:05:02;10.87;;;7.93;;
6149;SDS011;3106;42.670;23.318;2022-08-11T05:14:35;13.43;;;7.47;;
6149;SDS011;3106;42.670;23.318;2022-08-11T05:17:26;9.60;;;7.27;;
6149;SDS011;3106;42.670;23.318;2022-08-11T05:20:19;8.90;;;7.30;;
6149;SDS011;3106;42.670;23.318;2022-08-11T05:23:06;9.60;;;7.60;;
6149;SDS011;3106;42.670;23.318;2022-08-11T05:25:54;10.40;;;7.13;;
6149;SDS011;3106;42.670;23.318;2022-08-11T05:28:44;15.27;;;8.40;;
6149;SDS011;3106;42.670;23.318;2022-08-11T05:31:35;16.27;;;7.67;;
6149;SDS011;3106;42.670;23.318;2022-08-11T05:34:21;14.33;;;7.80;;
6149;SDS011;3106;42.670;23.318;2022-08-11T05:37:10;12.30;;;10.17;;
6149;SDS011;3106;42.670;23.318;2022-08-11T05:39:41;14.53;;;7.47;;
6149;SDS011;3106;42.670;23.318;2022-08-11T05:42:27;10.20;;;6.50;;
6149;SDS011;3106;42.670;23.318;2022-08-11T05:45:16;12.60;;;7.90;;
6149;SDS011;3106;42.670;23.318;2022-08-11T05:48:01;10.50;;;7.30;;
6149;SDS011;3106;42.670;23.318;2022-08-11T05:50:50;8.37;;;7.47;;
6149;SDS011;3106;42.670;23.318;2022-08-11T05:53:41;9.90;;;7.53;;
6149;SDS011;3106;42.670;23.318;2022-08-11T05:56:28;8.47;;;6.50;;
6149;SDS011;3106;42.670;23.318;2022-08-11T05:58:57;10.50;;;6.63;;
6149;SDS011;3106;42.670;23.318;2022-08-11T06:01:27;12.37;;;8.53;;
6149;SDS011;3106;42.670;23.318;2022-08-11T06:03:56;12.30;;;7.53;;
6149;SDS011;3106;42.670;23.318;2022-08-11T06:06:45;8.67;;;7.37;;
6149;SDS011;3106;42.670;23.318;2022-08-11T06:09:27;14.33;;;6.80;;
6149;SDS011;3106;42.670;23.318;2022-08-11T06:11:59;18.93;;;7.97;;
6149;SDS011;3106;42.670;23.318;2022-08-11T06:14:27;16.83;;;8.00;;
6149;SDS011;3106;42.670;23.318;2022-08-11T06:16:58;12.50;;;7.33;;
6149;SDS011;3106;42.670;23.318;2022-08-11T06:19:34;13.13;;;7.60;;
6149;SDS011;3106;42.670;23.318;2022-08-11T06:22:03;11.00;;;6.90;;
6149;SDS011;3106;42.670;23.318;2022-08-11T06:24:32;14.43;;;7.50;;
6149;SDS011;3106;42.670;23.318;2022-08-11T06:27:03;7.97;;;6.90;;
6149;SDS011;3106;42.670;23.318;2022-08-11T06:29:32;12.40;;;6.90;;
6149;SDS011;3106;42.670;23.318;2022-08-11T06:32:07;14.13;;;6.73;;
6149;SDS011;3106;42.670;23.318;2022-08-11T06:34:46;17.10;;;7.43;;
6149;SDS011;3106;42.670;23.318;2022-08-11T06:37:28;10.33;;;6.07;;
6149;SDS011;3106;42.670;23.318;2022-08-11T06:40:06;8.90;;;6.47;;
6149;SDS011;3106;42.670;23.318;2022-08-11T06:42:50;8.60;;;6.30;;
6149;SDS011;3106;42.670;23.318;2022-08-11T06:45:27;7.27;;;6.57;;
6149;SDS011;3106;42.670;23.318;2022-08-11T06:47:59;6.87;;;6.17;;
6149;SDS011;3106;42.670;23.318;2022-08-11T06:50:27;8.23;;;5.43;;
6149;SDS011;3106;42.670;23.318;2022-08-11T06:53:14;9.00;;;5.73;;
6149;SDS011;3106;42.670;23.318;2022-08-11T06:55:45;6.77;;;5.77;;
6149;SDS011;3106;42.670;23.318;2022-08-11T06:58:32;8.80;;;5.40;;
6149;SDS011;3106;42.670;23.318;2022-08-11T07:01:37;12.73;;;5.13;;
6149;SDS011;3106;42.670;23.318;2022-08-11T07:04:12;7.23;;;5.40;;
6149;SDS011;3106;42.670;23.318;2022-08-11T07:06:46;9.47;;;5.30;;
6149;SDS011;3106;42.670;23.318;2022-08-11T07:12:56;5.77;;;5.20;;
6149;SDS011;3106;42.670;23.318;2022-08-11T07:15:43;9.37;;;6.13;;
6149;SDS011;3106;42.670;23.318;2022-08-11T07:18:19;9.87;;;5.03;;
6149;SDS011;3106;42.670;23.318;2022-08-11T07:21:12;7.50;;;5.30;;
6149;SDS011;3106;42.670;23.318;2022-08-11T07:24:04;7.33;;;4.90;;
6149;SDS011;3106;42.670;23.318;2022-08-11T07:26:56;9.10;;;4.70;;
6149;SDS011;3106;42.670;23.318;2022-08-11T07:29:41;5.77;;;5.17;;
6149;SDS011;3106;42.670;23.318;2022-08-11T07:32:18;9.33;;;5.07;;
6149;SDS011;3106;42.670;23.318;2022-08-11T07:35:06;5.40;;;4.90;;
6149;SDS011;3106;42.670;23.318;2022-08-11T07:37:55;6.40;;;5.70;;
6149;SDS011;3106;42.670;23.318;2022-08-11T07:40:29;6.10;;;4.90;;
6149;SDS011;3106;42.670;23.318;2022-08-11T07:42:58;8.10;;;5.87;;
6149;SDS011;3106;42.670;23.318;2022-08-11T07:45:25;6.73;;;6.00;;
6149;SDS011;3106;42.670;23.318;2022-08-11T07:48:10;5.70;;;5.13;;
6149;SDS011;3106;42.670;23.318;2022-08-11T07:50:56;7.70;;;5.30;;
6149;SDS011;3106;42.670;23.318;2022-08-11T07:53:44;6.50;;;5.80;;
6149;SDS011;3106;42.670;23.318;2022-08-11T07:56:12;9.93;;;5.07;;
6149;SDS011;3106;42.670;23.318;2022-08-11T07:58:40;5.87;;;5.07;;
6149;SDS011;3106;42.670;23.318;2022-08-11T08:01:26;6.30;;;5.20;;
6149;SDS011;3106;42.670;23.318;2022-08-11T08:04:14;6.40;;;5.70;;
6149;SDS011;3106;42.670;23.318;2022-08-11T08:07:00;11.00;;;5.83;;
6149;SDS011;3106;42.670;23.318;2022-08-11T08:09:49;8.40;;;5.70;;
6149;SDS011;3106;42.670;23.318;2022-08-11T08:12:34;7.27;;;6.20;;
6149;SDS011;3106;42.670;23.318;2022-08-11T08:15:20;6.93;;;6.23;;
6149;SDS011;3106;42.670;23.318;2022-08-11T08:18:05;7.60;;;6.03;;
6149;SDS011;3106;42.670;23.318;2022-08-11T08:20:35;20.73;;;11.17;;
6149;SDS011;3106;42.670;23.318;2022-08-11T08:23:04;11.00;;;6.30;;
6149;SDS011;3106;42.670;23.318;2022-08-11T08:25:34;5.53;;;5.00;;
6149;SDS011;3106;42.670;23.318;2022-08-11T08:28:04;10.23;;;5.67;;
6149;SDS011;3106;42.670;23.318;2022-08-11T08:30:32;8.17;;;5.90;;
6149;SDS011;3106;42.670;23.318;2022-08-11T08:33:17;10.50;;;5.50;;
6149;SDS011;3106;42.670;23.318;2022-08-11T08:35:47;7.43;;;5.07;;
6149;SDS011;3106;42.670;23.318;2022-08-11T08:38:35;8.90;;;5.70;;
6149;SDS011;3106;42.670;23.318;2022-08-11T08:41:04;6.00;;;5.40;;
6149;SDS011;3106;42.670;23.318;2022-08-11T08:43:33;7.40;;;5.60;;
6149;SDS011;3106;42.670;23.318;2022-08-11T08:46:01;5.50;;;4.63;;
6149;SDS011;3106;42.670;23.318;2022-08-11T08:48:33;6.70;;;4.80;;
6149;SDS011;3106;42.670;23.318;2022-08-11T08:51:03;8.50;;;5.50;;
6149;SDS011;3106;42.670;23.318;2022-08-11T08:53:52;14.10;;;5.40;;
6149;SDS011;3106;42.670;23.318;2022-08-11T08:56:28;9.23;;;5.30;;
6149;SDS011;3106;42.670;23.318;2022-08-11T08:58:58;11.20;;;5.10;;
6149;SDS011;3106;42.670;23.318;2022-08-11T09:01:28;5.60;;;5.00;;
6149;SDS011;3106;42.670;23.318;2022-08-11T09:03:58;5.40;;;4.90;;
6149;SDS011;3106;42.670;23.318;2022-08-11T09:06:28;5.60;;;4.70;;
6149;SDS011;3106;42.670;23.318;2022-08-11T09:08:56;5.87;;;5.13;;
6149;SDS011;3106;42.670;23.318;2022-08-11T09:11:24;15.40;;;5.23;;
6149;SDS011;3106;42.670;23.318;2022-08-11T09:14:10;7.20;;;6.40;;
6149;SDS011;3106;42.670;23.318;2022-08-11T09:16:38;8.63;;;5.60;;
6149;SDS011;3106;42.670;23.318;2022-08-11T09:19:05;10.30;;;6.47;;
6149;SDS011;3106;42.670;23.318;2022-08-11T09:22:10;7.53;;;5.07;;
6149;SDS011;3106;42.670;23.318;2022-08-11T10:09:47;7.80;;;6.23;;
6149;SDS011;3106;42.670;23.318;2022-08-11T10:12:19;6.17;;;5.57;;
6149;SDS011;3106;42.670;23.318;2022-08-11T10:14:50;6.03;;;4.87;;
6149;SDS011;3106;42.670;23.318;2022-08-11T10:17:38;5.60;;;4.97;;
6149;SDS011;3106;42.670;23.318;2022-08-11T10:20:31;8.07;;;5.57;;
6149;SDS011;3106;42.670;23.318;2022-08-11T10:23:00;14.00;;;5.60;;
6149;SDS011;3106;42.670;23.318;2022-08-11T10:25:47;19.50;;;6.77;;
6149;SDS011;3106;42.670;23.318;2022-08-11T10:28:33;9.63;;;5.10;;
6149;SDS011;3106;42.670;23.318;2022-08-11T10:31:03;7.83;;;6.90;;
6149;SDS011;3106;42.670;23.318;2022-08-11T10:33:52;9.40;;;5.83;;
6149;SDS011;3106;42.670;23.318;2022-08-11T10:36:38;10.13;;;5.90;;
6149;SDS011;3106;42.670;23.318;2022-08-11T10:39:10;12.00;;;5.27;;
6149;SDS011;3106;42.670;23.318;2022-08-11T10:41:44;6.73;;;5.97;;
6149;SDS011;3106;42.670;23.318;2022-08-11T10:44:30;5.70;;;5.17;;
6149;SDS011;3106;42.670;23.318;2022-08-11T10:47:02;7.87;;;6.20;;
6149;SDS011;3106;42.670;23.318;2022-08-11T10:49:44;7.33;;;6.00;;
6149;SDS011;3106;42.670;23.318;2022-08-11T10:52:32;7.03;;;5.00;;
6149;SDS011;3106;42.670;23.318;2022-08-11T10:55:18;8.10;;;5.30;;
6149;SDS011;3106;42.670;23.318;2022-08-11T10:58:04;5.20;;;4.63;;
6149;SDS011;3106;42.670;23.318;2022-08-11T11:00:49;8.90;;;4.73;;
6149;SDS011;3106;42.670;23.318;2022-08-11T11:03:20;5.60;;;4.73;;
6149;SDS011;3106;42.670;23.318;2022-08-11T11:05:48;5.20;;;4.70;;
6149;SDS011;3106;42.670;23.318;2022-08-11T11:08:18;6.53;;;4.90;;
6149;SDS011;3106;42.670;23.318;2022-08-11T11:11:07;5.03;;;4.23;;
6149;SDS011;3106;42.670;23.318;2022-08-11T11:13:36;5.97;;;4.73;;
6149;SDS011;3106;42.670;23.318;2022-08-11T11:16:21;6.93;;;5.07;;
6149;SDS011;3106;42.670;23.318;2022-08-11T11:19:04;5.37;;;4.60;;
6149;SDS011;3106;42.670;23.318;2022-08-11T11:21:34;5.30;;;4.80;;
6149;SDS011;3106;42.670;23.318;2022-08-11T11:24:08;5.17;;;4.70;;
6149;SDS011;3106;42.670;23.318;2022-08-11T11:26:42;5.90;;;5.30;;
6149;SDS011;3106;42.670;23.318;2022-08-11T11:32:26;6.50;;;5.20;;
6149;SDS011;3106;42.670;23.318;2022-08-11T11:35:16;7.83;;;5.20;;
6149;SDS011;3106;42.670;23.318;2022-08-11T11:37:51;9.73;;;4.73;;
6149;SDS011;3106;42.670;23.318;2022-08-11T11:40:21;5.60;;;5.00;;
6149;SDS011;3106;42.670;23.318;2022-08-11T11:42:50;5.27;;;4.77;;
6149;SDS011;3106;42.670;23.318;2022-08-11T11:45:22;8.10;;;4.50;;
6149;SDS011;3106;42.670;23.318;2022-08-11T11:47:51;4.97;;;4.47;;
6149;SDS011;3106;42.670;23.318;2022-08-11T11:50:23;6.00;;;5.13;;
6149;SDS011;3106;42.670;23.318;2022-08-11T11:52:52;5.40;;;4.90;;
6149;SDS011;3106;42.670;23.318;2022-08-11T11:55:20;8.00;;;4.93;;
6149;SDS011;3106;42.670;23.318;2022-08-11T11:57:49;8.33;;;5.37;;
6149;SDS011;3106;42.670;23.318;2022-08-11T12:00:37;5.50;;;4.93;;
6149;SDS011;3106;42.670;23.318;2022-08-11T12:03:22;7.80;;;4.77;;
6149;SDS011;3106;42.670;23.318;2022-08-11T12:05:50;5.37;;;4.87;;
6149;SDS011;3106;42.670;23.318;2022-08-11T12:08:20;6.90;;;5.37;;
6149;SDS011;3106;42.670;23.318;2022-08-11T12:10:50;9.13;;;5.20;;
6149;SDS011;3106;42.670;23.318;2022-08-11T12:13:40;6.27;;;4.83;;
6149;SDS011;3106;42.670;23.318;2022-08-11T12:16:11;9.20;;;5.07;;
6149;SDS011;3106;42.670;23.318;2022-08-11T12:18:40;9.17;;;5.07;;
6149;SDS011;3106;42.670;23.318;2022-08-11T12:21:11;5.67;;;4.80;;
6149;SDS011;3106;42.670;23.318;2022-08-11T12:23:41;11.10;;;5.00;;
6149;SDS011;3106;42.670;23.318;2022-08-11T12:26:26;6.13;;;5.23;;
6149;SDS011;3106;42.670;23.318;2022-08-11T12:29:12;6.10;;;4.73;;
6149;SDS011;3106;42.670;23.318;2022-08-11T12:31:42;12.27;;;5.60;;
6149;SDS011;3106;42.670;23.318;2022-08-11T12:34:10;8.47;;;4.90;;
6149;SDS011;3106;42.670;23.318;2022-08-11T12:36:40;6.50;;;5.30;;
6149;SDS011;3106;42.670;23.318;2022-08-11T12:39:09;7.47;;;5.57;;
6149;SDS011;3106;42.670;23.318;2022-08-11T12:41:43;7.33;;;5.00;;
6149;SDS011;3106;42.670;23.318;2022-08-11T12:44:37;5.37;;;4.43;;
6149;SDS011;3106;42.670;23.318;2022-08-11T12:47:22;5.13;;;3.90;;
6149;SDS011;3106;42.670;23.318;2022-08-11T12:50:10;5.50;;;4.20;;
6149;SDS011;3106;42.670;23.318;2022-08-11T12:52:55;11.00;;;4.80;;
6149;SDS011;3106;42.670;23.318;2022-08-11T12:55:22;10.07;;;4.57;;
6149;SDS011;3106;42.670;23.318;2022-08-11T12:58:05;8.50;;;4.60;;
6149;SDS011;3106;42.670;23.318;2022-08-11T13:00:45;8.40;;;4.40;;
6149;SDS011;3106;42.670;23.318;2022-08-11T13:03:32;7.27;;;5.10;;
6149;SDS011;3106;42.670;23.318;2022-08-11T13:06:18;13.47;;;5.40;;
6149;SDS011;3106;42.670;23.318;2022-08-11T13:08:48;5.50;;;4.90;;
6149;SDS011;3106;42.670;23.318;2022-08-11T13:11:16;5.17;;;4.50;;
6149;SDS011;3106;42.670;23.318;2022-08-11T13:14:01;6.53;;;5.20;;
6149;SDS011;3106;42.670;23.318;2022-08-11T13:16:30;6.47;;;4.77;;
6149;SDS011;3106;42.670;23.318;2022-08-11T13:19:21;5.80;;;4.40;;
6149;SDS011;3106;42.670;23.318;2022-08-11T13:21:49;5.43;;;4.77;;
6149;SDS011;3106;42.670;23.318;2022-08-11T13:24:17;11.77;;;4.77;;
6149;SDS011;3106;42.670;23.318;2022-08-11T13:26:46;6.87;;;4.80;;
6149;SDS011;3106;42.670;23.318;2022-08-11T13:29:19;9.40;;;5.20;;
6149;SDS011;3106;42.670;23.318;2022-08-11T13:31:47;5.10;;;4.37;;
6149;SDS011;3106;42.670;23.318;2022-08-11T13:34:15;8.20;;;5.17;;
6149;SDS011;3106;42.670;23.318;2022-08-11T13:36:45;8.17;;;4.53;;
6149;SDS011;3106;42.670;23.318;2022-08-11T13:39:13;5.20;;;4.40;;
6149;SDS011;3106;42.670;23.318;2022-08-11T13:41:41;6.50;;;4.70;;
6149;SDS011;3106;42.670;23.318;2022-08-11T13:44:12;5.03;;;4.53;;
6149;SDS011;3106;42.670;23.318;2022-08-11T13:46:42;5.30;;;4.27;;
6149;SDS011;3106;42.670;23.318;2022-08-11T13:49:09;4.57;;;4.13;;
6149;SDS011;3106;42.670;23.318;2022-08-11T13:51:37;6.97;;;3.80;;
6149;SDS011;3106;42.670;23.318;2022-08-11T13:54:06;4.90;;;3.90;;
6149;SDS011;3106;42.670;23.318;2022-08-11T13:56:36;6.50;;;4.43;;
6149;SDS011;3106;42.670;23.318;2022-08-11T13:59:04;12.90;;;4.27;;
6149;SDS011;3106;42.670;23.318;2022-08-11T14:01:37;7.13;;;3.80;;
6149;SDS011;3106;42.670;23.318;2022-08-11T14:04:07;3.90;;;3.60;;
6149;SDS011;3106;42.670;23.318;2022-08-11T14:06:37;4.20;;;3.87;;
6149;SDS011;3106;42.670;23.318;2022-08-11T14:09:11;5.00;;;3.53;;
6149;SDS011;3106;42.670;23.318;2022-08-11T14:11:42;5.40;;;3.80;;
6149;SDS011;3106;42.670;23.318;2022-08-11T14:14:30;4.43;;;4.03;;
6149;SDS011;3106;42.670;23.318;2022-08-11T14:17:00;4.70;;;3.70;;
6149;SDS011;3106;42.670;23.318;2022-08-11T14:19:34;4.47;;;4.07;;
6149;SDS011;3106;42.670;23.318;2022-08-11T14:22:04;4.33;;;3.93;;
6149;SDS011;3106;42.670;23.318;2022-08-11T14:24:33;5.77;;;3.87;;
6149;SDS011;3106;42.670;23.318;2022-08-11T14:27:02;4.80;;;3.77;;
6149;SDS011;3106;42.670;23.318;2022-08-11T14:29:30;5.57;;;3.50;;
6149;SDS011;3106;42.670;23.318;2022-08-11T14:32:03;4.90;;;4.10;;
6149;SDS011;3106;42.670;23.318;2022-08-11T14:34:32;5.50;;;4.07;;
6149;SDS011;3106;42.670;23.318;2022-08-11T14:37:00;8.63;;;4.80;;
6149;SDS011;3106;42.670;23.318;2022-08-11T14:39:33;7.83;;;4.47;;
6149;SDS011;3106;42.670;23.318;2022-08-11T14:42:04;4.87;;;4.37;;
6149;SDS011;3106;42.670;23.318;2022-08-11T14:44:51;5.13;;;4.70;;
6149;SDS011;3106;42.670;23.318;2022-08-11T14:47:38;7.33;;;4.17;;
6149;SDS011;3106;42.670;23.318;2022-08-11T14:50:11;5.90;;;5.30;;
6149;SDS011;3106;42.670;23.318;2022-08-11T14:52:42;6.80;;;5.87;;
6149;SDS011;3106;42.670;23.318;2022-08-11T14:55:15;5.30;;;4.80;;
6149;SDS011;3106;42.670;23.318;2022-08-11T14:58:04;6.60;;;4.90;;
6149;SDS011;3106;42.670;23.318;2022-08-11T15:00:34;12.43;;;4.50;;
6149;SDS011;3106;42.670;23.318;2022-08-11T15:03:03;4.70;;;4.23;;
6149;SDS011;3106;42.670;23.318;2022-08-11T15:05:35;5.73;;;4.97;;
6149;SDS011;3106;42.670;23.318;2022-08-11T15:08:05;7.07;;;4.00;;
6149;SDS011;3106;42.670;23.318;2022-08-11T15:10:35;5.10;;;4.17;;
6149;SDS011;3106;42.670;23.318;2022-08-11T15:13:02;14.33;;;4.50;;
6149;SDS011;3106;42.670;23.318;2022-08-11T15:15:30;5.57;;;4.90;;
6149;SDS011;3106;42.670;23.318;2022-08-11T15:18:16;5.60;;;4.43;;
6149;SDS011;3106;42.670;23.318;2022-08-11T15:20:44;6.57;;;4.80;;
6149;SDS011;3106;42.670;23.318;2022-08-11T15:23:29;6.33;;;5.20;;
6149;SDS011;3106;42.670;23.318;2022-08-11T15:26:16;8.13;;;5.13;;
6149;SDS011;3106;42.670;23.318;2022-08-11T15:29:08;9.50;;;4.77;;
6149;SDS011;3106;42.670;23.318;2022-08-11T15:31:54;5.90;;;4.30;;
6149;SDS011;3106;42.670;23.318;2022-08-11T15:34:39;9.27;;;4.97;;
6149;SDS011;3106;42.670;23.318;2022-08-11T15:37:24;7.70;;;4.80;;
6149;SDS011;3106;42.670;23.318;2022-08-11T15:40:00;6.73;;;5.13;;
6149;SDS011;3106;42.670;23.318;2022-08-11T15:42:52;10.27;;;4.97;;
6149;SDS011;3106;42.670;23.318;2022-08-11T15:45:43;5.80;;;5.00;;
6149;SDS011;3106;42.670;23.318;2022-08-11T15:48:17;5.93;;;4.00;;
6149;SDS011;3106;42.670;23.318;2022-08-11T15:50:49;6.40;;;4.37;;
6149;SDS011;3106;42.670;23.318;2022-08-11T15:53:23;5.17;;;4.10;;
6149;SDS011;3106;42.670;23.318;2022-08-11T15:55:55;7.90;;;4.93;;
6149;SDS011;3106;42.670;23.318;2022-08-11T15:58:25;7.60;;;4.30;;
6149;SDS011;3106;42.670;23.318;2022-08-11T16:01:14;5.03;;;3.83;;
6149;SDS011;3106;42.670;23.318;2022-08-11T16:04:02;9.33;;;4.77;;
6149;SDS011;3106;42.670;23.318;2022-08-11T16:06:40;6.90;;;4.53;;
6149;SDS011;3106;42.670;23.318;2022-08-11T16:09:11;5.63;;;4.17;;
6149;SDS011;3106;42.670;23.318;2022-08-11T16:11:40;9.53;;;4.80;;
6149;SDS011;3106;42.670;23.318;2022-08-11T16:14:11;5.07;;;4.50;;
6149;SDS011;3106;42.670;23.318;2022-08-11T16:16:58;5.10;;;4.60;;
6149;SDS011;3106;42.670;23.318;2022-08-11T16:19:27;6.47;;;4.77;;
6149;SDS011;3106;42.670;23.318;2022-08-11T16:22:00;4.47;;;4.07;;
6149;SDS011;3106;42.670;23.318;2022-08-11T16:24:31;5.67;;;4.10;;
6149;SDS011;3106;42.670;23.318;2022-08-11T16:27:02;6.30;;;4.23;;
6149;SDS011;3106;42.670;23.318;2022-08-11T16:29:32;5.17;;;4.13;;
6149;SDS011;3106;42.670;23.318;2022-08-11T16:32:02;4.90;;;4.40;;
6149;SDS011;3106;42.670;23.318;2022-08-11T16:34:43;4.63;;;4.10;;
6149;SDS011;3106;42.670;23.318;2022-08-11T16:37:28;5.80;;;4.77;;
6149;SDS011;3106;42.670;23.318;2022-08-11T16:40:15;6.80;;;4.50;;
6149;SDS011;3106;42.670;23.318;2022-08-11T16:42:45;6.50;;;4.87;;
6149;SDS011;3106;42.670;23.318;2022-08-11T16:45:32;5.80;;;4.37;;
6149;SDS011;3106;42.670;23.318;2022-08-11T16:48:17;7.93;;;4.83;;
6149;SDS011;3106;42.670;23.318;2022-08-11T16:50:47;6.60;;;4.70;;
6149;SDS011;3106;42.670;23.318;2022-08-11T16:53:14;6.33;;;4.50;;
6149;SDS011;3106;42.670;23.318;2022-08-11T16:55:42;6.93;;;4.97;;
6149;SDS011;3106;42.670;23.318;2022-08-11T16:58:12;7.80;;;5.23;;
6149;SDS011;3106;42.670;23.318;2022-08-11T17:00:59;7.77;;;4.23;;
6149;SDS011;3106;42.670;23.318;2022-08-11T17:03:28;9.53;;;4.87;;
6149;SDS011;3106;42.670;23.318;2022-08-11T17:06:12;5.17;;;4.30;;
6149;SDS011;3106;42.670;23.318;2022-08-11T17:08:57;6.00;;;4.93;;
6149;SDS011;3106;42.670;23.318;2022-08-11T17:11:47;5.60;;;4.60;;
6149;SDS011;3106;42.670;23.318;2022-08-11T17:14:34;5.83;;;5.23;;
6149;SDS011;3106;42.670;23.318;2022-08-11T17:17:08;8.17;;;4.80;;
6149;SDS011;3106;42.670;23.318;2022-08-11T17:19:39;8.93;;;4.87;;
6149;SDS011;3106;42.670;23.318;2022-08-11T17:22:10;6.67;;;4.67;;
6149;SDS011;3106;42.670;23.318;2022-08-11T17:24:50;6.50;;;5.47;;
6149;SDS011;3106;42.670;23.318;2022-08-11T17:27:18;6.93;;;5.13;;
6149;SDS011;3106;42.670;23.318;2022-08-11T17:29:49;11.60;;;6.20;;
6149;SDS011;3106;42.670;23.318;2022-08-11T17:32:22;5.40;;;4.50;;
6149;SDS011;3106;42.670;23.318;2022-08-11T17:35:13;5.47;;;4.80;;
6149;SDS011;3106;42.670;23.318;2022-08-11T17:37:57;6.50;;;4.80;;
6149;SDS011;3106;42.670;23.318;2022-08-11T17:40:29;6.07;;;4.50;;
6149;SDS011;3106;42.670;23.318;2022-08-11T17:42:58;5.63;;;5.13;;
6149;SDS011;3106;42.670;23.318;2022-08-11T17:45:44;6.87;;;4.90;;
6149;SDS011;3106;42.670;23.318;2022-08-11T17:48:32;7.20;;;4.77;;
6149;SDS011;3106;42.670;23.318;2022-08-11T17:51:04;4.70;;;4.30;;
6149;SDS011;3106;42.670;23.318;2022-08-11T17:53:38;5.03;;;4.53;;
6149;SDS011;3106;42.670;23.318;2022-08-11T17:56:24;8.47;;;5.57;;
6149;SDS011;3106;42.670;23.318;2022-08-11T17:59:09;4.70;;;4.30;;
6149;SDS011;3106;42.670;23.318;2022-08-11T18:01:57;9.60;;;5.50;;
6149;SDS011;3106;42.670;23.318;2022-08-11T18:04:49;8.70;;;5.43;;
6149;SDS011;3106;42.670;23.318;2022-08-11T18:07:17;6.60;;;5.70;;